Ventura, California
Current Conditions -  °F | °C
As of 3:51 PM on Monday 20 Oct 2014 (Local Time) from KOXR Reporting Station
Clear Clear  
Wind Chill: 71°   Ceiling: Unl
Heat Index: 71°   Visibility: 10mi
Dew Point: 60°   Wind: 10mph
Humidity: 68%   Direction: 260°W
Pressure: 29.89"   Gusts: NA
Location:  34.28°N, 119.29°W
Report Text: KOXR 202251Z 26009KT 10SM CLR 22/16 A2989 RMK AO2 SLP120 T02170156
Loading
Personal Weather Stations






























Interactive Weather Map
Tropical Storm Tracking
New forecast layout! Learn more

10-Day Weather Forecast

Advertisements
Track Severe Weather on mobile